Everett, Massachusetts
Current Conditions -  °F | °C
As of 6:01 AM on Monday 22 Dec 2014 (Local Time) from KBOS Reporting Station
Broken Clouds Broken Clouds  
Wind Chill: 29°   Ceiling: 2500
Heat Index: 34°   Visibility: 10mi
Dew Point: 27°   Wind: 6mph
Humidity: 75%   Direction: 330°NNW
Pressure: 30.38"   Gusts: NA
Location:  42.41°N, 71.05°W
Report Text: KBOS 221101Z 33005KT 10SM BKN025 01/M03 A3038 RMK AO2
Loading
Personal Weather Stations






























Interactive Weather Map New forecast layout! Learn more

10-Day Weather Forecast

Advertisements
Track Severe Weather on mobile